sensor_id;sensor_type;location;lat;lon;timestamp;pressure;altitude;pressure_sealevel;temperature;humidity
18985;BME280;9626;52.552;13.436;2023-02-13T00:01:30;103136.78;;;6.98;100.00
18985;BME280;9626;52.552;13.436;2023-02-13T00:03:56;103132.28;;;6.96;100.00
18985;BME280;9626;52.552;13.436;2023-02-13T00:06:22;103128.00;;;6.99;100.00
18985;BME280;9626;52.552;13.436;2023-02-13T00:08:48;103131.50;;;6.98;100.00
18985;BME280;9626;52.552;13.436;2023-02-13T00:11:14;103130.75;;;7.02;100.00
18985;BME280;9626;52.552;13.436;2023-02-13T00:13:40;103133.41;;;7.02;100.00
18985;BME280;9626;52.552;13.436;2023-02-13T00:16:07;103134.34;;;7.04;100.00
18985;BME280;9626;52.552;13.436;2023-02-13T00:18:36;103126.44;;;7.04;100.00
18985;BME280;9626;52.552;13.436;2023-02-13T00:21:05;103120.09;;;6.99;100.00
18985;BME280;9626;52.552;13.436;2023-02-13T00:23:33;103124.47;;;6.99;100.00
18985;BME280;9626;52.552;13.436;2023-02-13T00:26:00;103130.50;;;6.94;100.00
18985;BME280;9626;52.552;13.436;2023-02-13T00:28:26;103120.75;;;6.92;100.00
18985;BME280;9626;52.552;13.436;2023-02-13T00:30:52;103129.59;;;6.94;100.00
18985;BME280;9626;52.552;13.436;2023-02-13T00:33:18;103122.53;;;6.93;100.00
18985;BME280;9626;52.552;13.436;2023-02-13T00:35:44;103118.09;;;6.92;100.00
18985;BME280;9626;52.552;13.436;2023-02-13T00:38:10;103120.66;;;6.89;100.00
18985;BME280;9626;52.552;13.436;2023-02-13T00:40:36;103116.94;;;6.84;100.00
18985;BME280;9626;52.552;13.436;2023-02-13T00:43:02;103116.84;;;6.81;100.00
18985;BME280;9626;52.552;13.436;2023-02-13T00:45:28;103114.19;;;6.79;100.00
18985;BME280;9626;52.552;13.436;2023-02-13T00:47:54;103115.84;;;6.77;100.00
18985;BME280;9626;52.552;13.436;2023-02-13T00:50:20;103105.31;;;6.77;100.00
18985;BME280;9626;52.552;13.436;2023-02-13T00:52:46;103099.94;;;6.74;100.00
18985;BME280;9626;52.552;13.436;2023-02-13T00:55:12;103108.69;;;6.73;100.00
18985;BME280;9626;52.552;13.436;2023-02-13T00:57:38;103107.00;;;6.75;100.00
18985;BME280;9626;52.552;13.436;2023-02-13T01:00:05;103107.09;;;6.78;100.00
18985;BME280;9626;52.552;13.436;2023-02-13T01:02:31;103111.41;;;6.76;100.00
18985;BME280;9626;52.552;13.436;2023-02-13T01:05:01;103107.91;;;6.75;100.00
18985;BME280;9626;52.552;13.436;2023-02-13T01:07:27;103118.47;;;6.77;100.00
18985;BME280;9626;52.552;13.436;2023-02-13T01:09:53;103116.63;;;6.74;100.00
18985;BME280;9626;52.552;13.436;2023-02-13T01:12:19;103112.19;;;6.73;100.00
18985;BME280;9626;52.552;13.436;2023-02-13T01:14:45;103114.81;;;6.73;100.00
18985;BME280;9626;52.552;13.436;2023-02-13T01:17:11;103119.22;;;6.73;100.00
18985;BME280;9626;52.552;13.436;2023-02-13T01:19:39;103109.69;;;6.76;100.00
18985;BME280;9626;52.552;13.436;2023-02-13T01:22:07;103113.16;;;6.75;100.00
18985;BME280;9626;52.552;13.436;2023-02-13T01:24:33;103113.06;;;6.72;100.00
18985;BME280;9626;52.552;13.436;2023-02-13T01:26:59;103114.78;;;6.72;100.00
18985;BME280;9626;52.552;13.436;2023-02-13T01:29:27;103112.09;;;6.70;100.00
18985;BME280;9626;52.552;13.436;2023-02-13T01:31:53;103107.91;;;6.75;100.00
18985;BME280;9626;52.552;13.436;2023-02-13T01:34:19;103109.75;;;6.78;100.00
18985;BME280;9626;52.552;13.436;2023-02-13T01:36:45;103111.47;;;6.77;100.00
18985;BME280;9626;52.552;13.436;2023-02-13T01:39:12;103107.16;;;6.80;100.00
18985;BME280;9626;52.552;13.436;2023-02-13T01:41:38;103101.88;;;6.80;100.00
18985;BME280;9626;52.552;13.436;2023-02-13T01:47:09;103108.72;;;6.74;100.00
18985;BME280;9626;52.552;13.436;2023-02-13T01:49:37;103104.19;;;6.70;100.00
18985;BME280;9626;52.552;13.436;2023-02-13T01:52:06;103106.72;;;6.67;100.00
18985;BME280;9626;52.552;13.436;2023-02-13T01:54:34;103108.56;;;6.70;100.00
18985;BME280;9626;52.552;13.436;2023-02-13T01:57:05;103102.19;;;6.63;100.00
18985;BME280;9626;52.552;13.436;2023-02-13T01:59:52;103101.31;;;6.63;100.00
18985;BME280;9626;52.552;13.436;2023-02-13T02:02:20;103104.56;;;6.55;100.00
18985;BME280;9626;52.552;13.436;2023-02-13T02:04:47;103098.50;;;6.58;100.00
18985;BME280;9626;52.552;13.436;2023-02-13T02:07:19;103095.03;;;6.59;100.00
18985;BME280;9626;52.552;13.436;2023-02-13T02:09:46;103102.94;;;6.59;100.00
18985;BME280;9626;52.552;13.436;2023-02-13T02:14:52;103107.47;;;6.63;100.00
18985;BME280;9626;52.552;13.436;2023-02-13T02:17:21;103103.03;;;6.62;100.00
18985;BME280;9626;52.552;13.436;2023-02-13T02:20:04;103108.31;;;6.62;100.00
18985;BME280;9626;52.552;13.436;2023-02-13T02:36:12;103114.97;;;6.52;100.00
18985;BME280;9626;52.552;13.436;2023-02-13T02:41:41;103115.88;;;6.53;100.00
18985;BME280;9626;52.552;13.436;2023-02-13T02:50:31;103118.06;;;6.40;100.00
18985;BME280;9626;52.552;13.436;2023-02-13T02:53:14;103117.13;;;6.38;100.00
18985;BME280;9626;52.552;13.436;2023-02-13T02:58:21;103122.59;;;6.45;100.00
18985;BME280;9626;52.552;13.436;2023-02-13T03:01:11;103117.31;;;6.45;100.00
18985;BME280;9626;52.552;13.436;2023-02-13T03:03:58;103114.75;;;6.46;100.00
18985;BME280;9626;52.552;13.436;2023-02-13T03:06:55;103124.50;;;6.49;100.00
18985;BME280;9626;52.552;13.436;2023-02-13T03:09:46;103111.97;;;6.41;100.00
18985;BME280;9626;52.552;13.436;2023-02-13T03:12:43;103117.06;;;6.37;100.00
18985;BME280;9626;52.552;13.436;2023-02-13T03:15:29;103121.31;;;6.33;100.00
18985;BME280;9626;52.552;13.436;2023-02-13T03:17:56;103120.34;;;6.31;100.00
18985;BME280;9626;52.552;13.436;2023-02-13T03:20:50;103116.19;;;6.38;100.00
18985;BME280;9626;52.552;13.436;2023-02-13T03:23:56;103120.44;;;6.33;100.00
18985;BME280;9626;52.552;13.436;2023-02-13T03:27:35;103115.16;;;6.33;100.00
18985;BME280;9626;52.552;13.436;2023-02-13T03:29:38;103114.97;;;6.28;100.00
18985;BME280;9626;52.552;13.436;2023-02-13T03:32:35;103118.44;;;6.27;100.00
18985;BME280;9626;52.552;13.436;2023-02-13T03:35:26;103116.78;;;6.29;100.00
18985;BME280;9626;52.552;13.436;2023-02-13T03:41:29;103116.69;;;6.26;100.00
18985;BME280;9626;52.552;13.436;2023-02-13T03:46:52;103112.19;;;6.23;100.00
18985;BME280;9626;52.552;13.436;2023-02-13T03:49:43;103109.66;;;6.26;100.00
18985;BME280;9626;52.552;13.436;2023-02-13T03:52:59;103112.28;;;6.26;100.00
18985;BME280;9626;52.552;13.436;2023-02-13T03:55:46;103102.59;;;6.25;100.00
18985;BME280;9626;52.552;13.436;2023-02-13T03:58:53;103108.59;;;6.21;100.00
18985;BME280;9626;52.552;13.436;2023-02-13T04:02:06;103109.38;;;6.19;100.00
18985;BME280;9626;52.552;13.436;2023-02-13T04:05:08;103111.28;;;6.23;100.00
18985;BME280;9626;52.552;13.436;2023-02-13T04:07:54;103105.81;;;6.17;100.00
18985;BME280;9626;52.552;13.436;2023-02-13T04:10:48;103101.31;;;6.14;100.00
18985;BME280;9626;52.552;13.436;2023-02-13T04:13:35;103094.25;;;6.13;100.00
18985;BME280;9626;52.552;13.436;2023-02-13T04:16:28;103094.16;;;6.10;100.00
18985;BME280;9626;52.552;13.436;2023-02-13T04:18:57;103096.00;;;6.13;100.00
18985;BME280;9626;52.552;13.436;2023-02-13T04:21:25;103095.28;;;6.17;100.00
18985;BME280;9626;52.552;13.436;2023-02-13T04:24:00;103090.84;;;6.16;100.00
18985;BME280;9626;52.552;13.436;2023-02-13T04:26:34;103093.59;;;6.19;100.00
18985;BME280;9626;52.552;13.436;2023-02-13T04:29:01;103097.97;;;6.18;100.00
18985;BME280;9626;52.552;13.436;2023-02-13T04:31:27;103098.63;;;6.13;100.00
18985;BME280;9626;52.552;13.436;2023-02-13T04:34:03;103100.44;;;6.14;100.00
18985;BME280;9626;52.552;13.436;2023-02-13T04:36:48;103095.19;;;6.14;100.00
18985;BME280;9626;52.552;13.436;2023-02-13T04:39:14;103098.84;;;6.19;100.00
18985;BME280;9626;52.552;13.436;2023-02-13T04:41:58;103088.31;;;6.19;100.00
18985;BME280;9626;52.552;13.436;2023-02-13T04:44:43;103074.34;;;6.20;100.00
18985;BME280;9626;52.552;13.436;2023-02-13T04:47:09;103072.63;;;6.20;100.00
18985;BME280;9626;52.552;13.436;2023-02-13T04:49:35;103079.53;;;6.18;100.00
18985;BME280;9626;52.552;13.436;2023-02-13T04:52:01;103079.50;;;6.17;100.00
18985;BME280;9626;52.552;13.436;2023-02-13T04:54:27;103084.06;;;6.22;100.00
18985;BME280;9626;52.552;13.436;2023-02-13T04:57:02;103083.94;;;6.18;100.00
18985;BME280;9626;52.552;13.436;2023-02-13T04:59:28;103083.94;;;6.18;100.00
18985;BME280;9626;52.552;13.436;2023-02-13T05:01:54;103085.78;;;6.20;100.00
18985;BME280;9626;52.552;13.436;2023-02-13T05:04:20;103084.75;;;6.17;100.00
18985;BME280;9626;52.552;13.436;2023-02-13T05:06:54;103087.34;;;6.15;100.00
18985;BME280;9626;52.552;13.436;2023-02-13T05:09:20;103093.72;;;6.22;100.00
18985;BME280;9626;52.552;13.436;2023-02-13T05:11:50;103090.94;;;6.19;100.00
18985;BME280;9626;52.552;13.436;2023-02-13T05:14:16;103095.38;;;6.20;100.00
18985;BME280;9626;52.552;13.436;2023-02-13T05:16:42;103095.28;;;6.17;100.00
18985;BME280;9626;52.552;13.436;2023-02-13T05:19:08;103093.38;;;6.13;100.00
18985;BME280;9626;52.552;13.436;2023-02-13T05:21:34;103091.47;;;6.08;100.00
18985;BME280;9626;52.552;13.436;2023-02-13T05:24:18;103087.91;;;6.08;100.00
18985;BME280;9626;52.552;13.436;2023-02-13T05:26:59;103097.56;;;6.07;100.00
18985;BME280;9626;52.552;13.436;2023-02-13T05:29:44;103089.72;;;6.09;100.00
18985;BME280;9626;52.552;13.436;2023-02-13T05:32:28;103084.41;;;6.07;100.00
18985;BME280;9626;52.552;13.436;2023-02-13T05:34:54;103088.78;;;6.07;100.00
18985;BME280;9626;52.552;13.436;2023-02-13T05:37:20;103095.81;;;6.08;100.00
18985;BME280;9626;52.552;13.436;2023-02-13T05:39:46;103089.81;;;6.12;100.00
18985;BME280;9626;52.552;13.436;2023-02-13T05:42:12;103083.63;;;6.10;100.00
18985;BME280;9626;52.552;13.436;2023-02-13T05:44:38;103088.06;;;6.11;100.00
18985;BME280;9626;52.552;13.436;2023-02-13T05:47:04;103088.13;;;6.13;100.00
18985;BME280;9626;52.552;13.436;2023-02-13T05:49:30;103091.81;;;6.18;100.00
18985;BME280;9626;52.552;13.436;2023-02-13T05:51:56;103088.31;;;6.19;100.00
18985;BME280;9626;52.552;13.436;2023-02-13T05:54:22;103100.66;;;6.20;100.00
18985;BME280;9626;52.552;13.436;2023-02-13T05:56:48;103103.22;;;6.18;100.00
18985;BME280;9626;52.552;13.436;2023-02-13T05:59:33;103106.81;;;6.20;100.00
18985;BME280;9626;52.552;13.436;2023-02-13T06:01:59;103107.75;;;6.22;100.00
18985;BME280;9626;52.552;13.436;2023-02-13T06:04:34;103111.41;;;6.26;100.00
18985;BME280;9626;52.552;13.436;2023-02-13T06:07:18;103105.91;;;6.20;100.00
18985;BME280;9626;52.552;13.436;2023-02-13T06:09:44;103116.44;;;6.20;100.00
18985;BME280;9626;52.552;13.436;2023-02-13T06:12:28;103119.06;;;6.20;100.00
18985;BME280;9626;52.552;13.436;2023-02-13T06:14:54;103118.13;;;6.18;100.00
18985;BME280;9626;52.552;13.436;2023-02-13T06:17:21;103120.03;;;6.22;100.00
18985;BME280;9626;52.552;13.436;2023-02-13T06:19:47;103120.81;;;6.19;100.00
18985;BME280;9626;52.552;13.436;2023-02-13T06:22:13;103126.94;;;6.20;100.00
18985;BME280;9626;52.552;13.436;2023-02-13T06:24:57;103121.75;;;6.21;100.00
18985;BME280;9626;52.552;13.436;2023-02-13T06:27:23;103120.72;;;6.16;100.00
18985;BME280;9626;52.552;13.436;2023-02-13T06:29:49;103113.69;;;6.17;100.00
18985;BME280;9626;52.552;13.436;2023-02-13T06:32:30;103119.91;;;6.19;100.00
18985;BME280;9626;52.552;13.436;2023-02-13T06:34:56;103121.69;;;6.20;100.00
18985;BME280;9626;52.552;13.436;2023-02-13T06:37:22;103119.16;;;6.23;100.00
18985;BME280;9626;52.552;13.436;2023-02-13T06:39:48;103118.53;;;6.29;100.00
18985;BME280;9626;52.552;13.436;2023-02-13T06:42:14;103123.06;;;6.33;100.00
18985;BME280;9626;52.552;13.436;2023-02-13T06:44:40;103127.31;;;6.29;100.00
18985;BME280;9626;52.552;13.436;2023-02-13T06:47:06;103127.34;;;6.31;100.00
18985;BME280;9626;52.552;13.436;2023-02-13T06:49:32;103129.94;;;6.29;100.00
18985;BME280;9626;52.552;13.436;2023-02-13T06:51:58;103134.22;;;6.27;100.00
18985;BME280;9626;52.552;13.436;2023-02-13T06:54:42;103135.09;;;6.26;100.00
18985;BME280;9626;52.552;13.436;2023-02-13T06:57:27;103139.38;;;6.24;100.00
18985;BME280;9626;52.552;13.436;2023-02-13T07:00:17;103136.94;;;6.29;100.00
18985;BME280;9626;52.552;13.436;2023-02-13T07:03:03;103148.56;;;6.35;100.00
18985;BME280;9626;52.552;13.436;2023-02-13T07:05:31;103144.91;;;6.30;100.00
18985;BME280;9626;52.552;13.436;2023-02-13T07:07:57;103144.75;;;6.27;100.00
18985;BME280;9626;52.552;13.436;2023-02-13T07:10:23;103147.38;;;6.27;100.00
18985;BME280;9626;52.552;13.436;2023-02-13T07:12:49;103151.91;;;6.31;100.00
18985;BME280;9626;52.552;13.436;2023-02-13T07:15:15;103150.31;;;6.35;100.00
18985;BME280;9626;52.552;13.436;2023-02-13T07:17:41;103148.56;;;6.35;100.00
18985;BME280;9626;52.552;13.436;2023-02-13T07:20:08;103151.28;;;6.37;100.00
18985;BME280;9626;52.552;13.436;2023-02-13T07:22:34;103156.47;;;6.35;100.00
18985;BME280;9626;52.552;13.436;2023-02-13T07:25:00;103150.38;;;6.36;100.00
18985;BME280;9626;52.552;13.436;2023-02-13T07:27:27;103154.75;;;6.36;100.00
18985;BME280;9626;52.552;13.436;2023-02-13T07:30:12;103153.78;;;6.34;100.00
18985;BME280;9626;52.552;13.436;2023-02-13T07:32:39;103157.53;;;6.40;100.00
18985;BME280;9626;52.552;13.436;2023-02-13T07:35:05;103152.22;;;6.39;100.00
18985;BME280;9626;52.552;13.436;2023-02-13T07:37:31;103158.50;;;6.42;100.00
18985;BME280;9626;52.552;13.436;2023-02-13T07:39:57;103157.78;;;6.47;100.00
18985;BME280;9626;52.552;13.436;2023-02-13T07:42:23;103159.69;;;6.51;100.00
18985;BME280;9626;52.552;13.436;2023-02-13T07:44:49;103162.31;;;6.51;100.00
18985;BME280;9626;52.552;13.436;2023-02-13T07:47:15;103166.75;;;6.52;100.00
18985;BME280;9626;52.552;13.436;2023-02-13T07:49:53;103164.94;;;6.51;100.00
18985;BME280;9626;52.552;13.436;2023-02-13T07:52:19;103162.38;;;6.52;100.00
18985;BME280;9626;52.552;13.436;2023-02-13T07:54:45;103163.25;;;6.53;100.00
18985;BME280;9626;52.552;13.436;2023-02-13T07:57:15;103160.63;;;6.53;100.00
18985;BME280;9626;52.552;13.436;2023-02-13T07:59:42;103161.34;;;6.49;100.00
18985;BME280;9626;52.552;13.436;2023-02-13T08:02:12;103163.97;;;6.49;100.00
18985;BME280;9626;52.552;13.436;2023-02-13T08:04:39;103165.78;;;6.50;100.00
18985;BME280;9626;52.552;13.436;2023-02-13T08:07:06;103167.38;;;6.46;100.00
18985;BME280;9626;52.552;13.436;2023-02-13T08:09:47;103161.13;;;6.42;100.00
18985;BME280;9626;52.552;13.436;2023-02-13T08:12:37;103165.63;;;6.45;100.00
18985;BME280;9626;52.552;13.436;2023-02-13T08:15:11;103164.69;;;6.45;100.00
18985;BME280;9626;52.552;13.436;2023-02-13T08:17:38;103166.59;;;6.49;100.00
18985;BME280;9626;52.552;13.436;2023-02-13T08:20:05;103172.91;;;6.52;100.00
18985;BME280;9626;52.552;13.436;2023-02-13T08:22:53;103170.41;;;6.57;100.00
18985;BME280;9626;52.552;13.436;2023-02-13T08:25:19;103168.75;;;6.59;100.00
18985;BME280;9626;52.552;13.436;2023-02-13T08:28:04;103163.50;;;6.59;100.00
18985;BME280;9626;52.552;13.436;2023-02-13T08:30:30;103161.69;;;6.58;100.00
18985;BME280;9626;52.552;13.436;2023-02-13T08:32:56;103167.06;;;6.61;100.00
18985;BME280;9626;52.552;13.436;2023-02-13T08:35:31;103171.53;;;6.64;100.00
18985;BME280;9626;52.552;13.436;2023-02-13T08:38:16;103172.44;;;6.64;100.00
18985;BME280;9626;52.552;13.436;2023-02-13T08:40:42;103162.03;;;6.67;100.00
18985;BME280;9626;52.552;13.436;2023-02-13T08:43:26;103166.41;;;6.67;100.00
18985;BME280;9626;52.552;13.436;2023-02-13T08:46:10;103168.13;;;6.66;100.00
18985;BME280;9626;52.552;13.436;2023-02-13T08:48:54;103169.91;;;6.67;100.00
18985;BME280;9626;52.552;13.436;2023-02-13T08:51:20;103165.50;;;6.66;100.00
18985;BME280;9626;52.552;13.436;2023-02-13T08:53:46;103169.97;;;6.69;100.00
18985;BME280;9626;52.552;13.436;2023-02-13T08:56:13;103156.75;;;6.67;100.00
18985;BME280;9626;52.552;13.436;2023-02-13T08:58:39;103166.56;;;6.71;100.00
18985;BME280;9626;52.552;13.436;2023-02-13T09:01:06;103162.03;;;6.67;100.00
18985;BME280;9626;52.552;13.436;2023-02-13T09:03:33;103162.03;;;6.67;100.00
18985;BME280;9626;52.552;13.436;2023-02-13T09:06:00;103166.31;;;6.65;100.00
18985;BME280;9626;52.552;13.436;2023-02-13T09:08:26;103174.13;;;6.62;100.00
18985;BME280;9626;52.552;13.436;2023-02-13T09:11:11;103172.44;;;6.64;100.00
18985;BME280;9626;52.552;13.436;2023-02-13T09:13:39;103170.84;;;6.69;100.00
18985;BME280;9626;52.552;13.436;2023-02-13T09:16:06;103172.44;;;6.64;100.00
18985;BME280;9626;52.552;13.436;2023-02-13T09:18:50;103177.72;;;6.64;100.00
18985;BME280;9626;52.552;13.436;2023-02-13T09:21:19;103180.41;;;6.66;100.00
18985;BME280;9626;52.552;13.436;2023-02-13T09:23:45;103181.13;;;6.62;100.00
18985;BME280;9626;52.552;13.436;2023-02-13T09:26:29;103188.13;;;6.61;100.00
18985;BME280;9626;52.552;13.436;2023-02-13T09:28:55;103188.13;;;6.61;100.00
18985;BME280;9626;52.552;13.436;2023-02-13T09:31:21;103185.31;;;6.56;100.00
18985;BME280;9626;52.552;13.436;2023-02-13T09:33:49;103189.81;;;6.59;100.00
18985;BME280;9626;52.552;13.436;2023-02-13T09:36:18;103187.84;;;6.53;100.00
18985;BME280;9626;52.552;13.436;2023-02-13T09:39:03;103192.25;;;6.54;100.00
18985;BME280;9626;52.552;13.436;2023-02-13T09:41:37;103195.81;;;6.55;100.00
18985;BME280;9626;52.552;13.436;2023-02-13T09:47:40;103199.78;;;6.43;100.00
18985;BME280;9626;52.552;13.436;2023-02-13T09:50:28;103196.19;;;6.41;100.00
18985;BME280;9626;52.552;13.436;2023-02-13T09:52:57;103189.16;;;6.42;100.00
18985;BME280;9626;52.552;13.436;2023-02-13T09:55:46;103193.56;;;6.41;100.00
18985;BME280;9626;52.552;13.436;2023-02-13T09:58:55;103190.81;;;6.38;100.00
18985;BME280;9626;52.552;13.436;2023-02-13T10:01:31;103184.00;;;6.43;100.00
18985;BME280;9626;52.552;13.436;2023-02-13T10:04:28;103188.03;;;6.35;100.00
18985;BME280;9626;52.552;13.436;2023-02-13T10:07:28;103196.06;;;6.38;100.00
18985;BME280;9626;52.552;13.436;2023-02-13T10:13:19;103200.50;;;6.39;100.00
18985;BME280;9626;52.552;13.436;2023-02-13T10:16:09;103197.53;;;6.30;100.00
18985;BME280;9626;52.552;13.436;2023-02-13T10:19:00;103204.22;;;6.22;100.00
18985;BME280;9626;52.552;13.436;2023-02-13T10:21:41;103207.75;;;6.22;100.00
18985;BME280;9626;52.552;13.436;2023-02-13T10:24:28;103199.63;;;6.16;100.00
18985;BME280;9626;52.552;13.436;2023-02-13T10:26:56;103211.25;;;6.23;100.00
18985;BME280;9626;52.552;13.436;2023-02-13T10:29:40;103202.44;;;6.21;100.00
18985;BME280;9626;52.552;13.436;2023-02-13T10:38:14;103199.75;;;6.19;100.00
18985;BME280;9626;52.552;13.436;2023-02-13T10:40:53;103202.66;;;6.27;100.00
18985;BME280;9626;52.552;13.436;2023-02-13T10:43:29;103203.13;;;6.39;100.00
18985;BME280;9626;52.552;13.436;2023-02-13T10:46:17;103199.06;;;6.48;100.00
18985;BME280;9626;52.552;13.436;2023-02-13T10:55:08;103184.19;;;6.50;100.00
18985;BME280;9626;52.552;13.436;2023-02-13T11:04:09;103172.94;;;6.78;100.00
18985;BME280;9626;52.552;13.436;2023-02-13T11:09:20;103169.63;;;6.84;100.00
18985;BME280;9626;52.552;13.436;2023-02-13T11:11:46;103158.31;;;6.86;100.00
18985;BME280;9626;52.552;13.436;2023-02-13T11:16:58;103165.63;;;6.95;100.00
18985;BME280;9626;52.552;13.436;2023-02-13T11:24:55;103153.19;;;6.91;100.00
18985;BME280;9626;52.552;13.436;2023-02-13T11:27:26;103154.28;;;6.98;100.00
18985;BME280;9626;52.552;13.436;2023-02-13T11:30:30;103145.59;;;7.00;100.00
18985;BME280;9626;52.552;13.436;2023-02-13T11:35:35;103149.44;;;7.10;100.00
18985;BME280;9626;52.552;13.436;2023-02-13T11:38:22;103147.41;;;7.01;100.00
18985;BME280;9626;52.552;13.436;2023-02-13T11:46:47;103141.81;;;7.18;100.00
18985;BME280;9626;52.552;13.436;2023-02-13T11:49:30;103134.66;;;7.14;100.00
18985;BME280;9626;52.552;13.436;2023-02-13T11:52:26;103129.31;;;7.12;100.00
18985;BME280;9626;52.552;13.436;2023-02-13T11:55:02;103125.94;;;7.16;100.00
18985;BME280;9626;52.552;13.436;2023-02-13T11:57:33;103126.78;;;7.15;100.00
18985;BME280;9626;52.552;13.436;2023-02-13T12:00:01;103122.41;;;7.16;100.00
18985;BME280;9626;52.552;13.436;2023-02-13T12:02:55;103118.00;;;7.15;100.00
18985;BME280;9626;52.552;13.436;2023-02-13T12:05:23;103115.41;;;7.16;100.00
18985;BME280;9626;52.552;13.436;2023-02-13T12:07:59;103116.50;;;7.23;100.00
18985;BME280;9626;52.552;13.436;2023-02-13T12:10:28;103110.31;;;7.22;100.00
18985;BME280;9626;52.552;13.436;2023-02-13T12:13:12;103124.25;;;7.18;100.00
18985;BME280;9626;52.552;13.436;2023-02-13T12:15:39;103120.63;;;7.15;100.00
18985;BME280;9626;52.552;13.436;2023-02-13T12:18:27;103121.56;;;7.17;100.00
18985;BME280;9626;52.552;13.436;2023-02-13T12:21:12;103121.66;;;7.20;100.00
18985;BME280;9626;52.552;13.436;2023-02-13T12:26:43;103136.59;;;7.19;100.00
18985;BME280;9626;52.552;13.436;2023-02-13T12:32:13;103125.53;;;7.04;100.00
18985;BME280;9626;52.552;13.436;2023-02-13T13:00:39;103111.63;;;7.08;100.00
18985;BME280;9626;52.552;13.436;2023-02-13T13:03:36;103116.94;;;7.09;100.00
18985;BME280;9626;52.552;13.436;2023-02-13T13:14:19;103110.84;;;7.10;100.00
18985;BME280;9626;52.552;13.436;2023-02-13T13:22:34;103116.06;;;7.09;100.00
18985;BME280;9626;52.552;13.436;2023-02-13T13:28:08;103113.63;;;7.15;100.00
18985;BME280;9626;52.552;13.436;2023-02-13T13:30:37;103120.63;;;7.15;100.00
18985;BME280;9626;52.552;13.436;2023-02-13T13:33:06;103125.03;;;7.16;100.00
18985;BME280;9626;52.552;13.436;2023-02-13T13:35:37;103116.19;;;7.14;100.00
18985;BME280;9626;52.552;13.436;2023-02-13T13:44:33;103119.94;;;7.20;100.00
18985;BME280;9626;52.552;13.436;2023-02-13T13:49:57;103118.34;;;7.25;100.00
18985;BME280;9626;52.552;13.436;2023-02-13T13:52:26;103114.94;;;7.28;100.00
18985;BME280;9626;52.552;13.436;2023-02-13T13:54:54;103110.38;;;7.24;100.00
18985;BME280;9626;52.552;13.436;2023-02-13T14:02:46;103098.81;;;7.19;100.00
18985;BME280;9626;52.552;13.436;2023-02-13T14:05:27;103094.25;;;7.13;100.00
18985;BME280;9626;52.552;13.436;2023-02-13T14:17:00;103088.84;;;7.10;100.00
18985;BME280;9626;52.552;13.436;2023-02-13T14:19:38;103094.16;;;7.11;100.00
18985;BME280;9626;52.552;13.436;2023-02-13T14:25:38;103069.69;;;7.16;100.00
18985;BME280;9626;52.552;13.436;2023-02-13T14:28:26;103071.94;;;7.31;100.00
18985;BME280;9626;52.552;13.436;2023-02-13T14:31:06;103076.13;;;7.24;100.00
18985;BME280;9626;52.552;13.436;2023-02-13T14:33:32;103058.38;;;7.18;100.00
18985;BME280;9626;52.552;13.436;2023-02-13T14:36:19;103061.88;;;7.17;100.00
18985;BME280;9626;52.552;13.436;2023-02-13T14:41:57;103061.78;;;7.16;100.00
18985;BME280;9626;52.552;13.436;2023-02-13T14:44:47;103058.22;;;7.14;100.00
18985;BME280;9626;52.552;13.436;2023-02-13T14:47:28;103046.72;;;7.11;100.00
18985;BME280;9626;52.552;13.436;2023-02-13T14:50:22;103055.56;;;7.12;100.00
18985;BME280;9626;52.552;13.436;2023-02-13T14:53:08;103060.03;;;7.15;100.00
18985;BME280;9626;52.552;13.436;2023-02-13T14:56:05;103060.81;;;7.12;100.00
18985;BME280;9626;52.552;13.436;2023-02-13T14:58:44;103060.72;;;7.09;100.00
18985;BME280;9626;52.552;13.436;2023-02-13T15:01:25;103056.31;;;7.08;100.00
18985;BME280;9626;52.552;13.436;2023-02-13T15:04:34;103059.72;;;7.05;100.00
18985;BME280;9626;52.552;13.436;2023-02-13T15:07:25;103058.03;;;7.07;100.00
18985;BME280;9626;52.552;13.436;2023-02-13T15:10:35;103061.53;;;7.06;100.00
18985;BME280;9626;52.552;13.436;2023-02-13T15:16:00;103039.22;;;6.97;100.00
18985;BME280;9626;52.552;13.436;2023-02-13T15:18:49;103032.06;;;6.92;100.00
18985;BME280;9626;52.552;13.436;2023-02-13T15:21:22;103031.84;;;6.85;100.00
18985;BME280;9626;52.552;13.436;2023-02-13T15:23:56;103025.59;;;6.83;100.00
18985;BME280;9626;52.552;13.436;2023-02-13T15:26:42;103018.44;;;6.79;100.00
18985;BME280;9626;52.552;13.436;2023-02-13T15:29:18;103014.25;;;6.84;100.00
18985;BME280;9626;52.552;13.436;2023-02-13T15:32:19;103021.91;;;6.77;100.00
18985;BME280;9626;52.552;13.436;2023-02-13T15:34:50;103016.59;;;6.76;100.00
18985;BME280;9626;52.552;13.436;2023-02-13T15:37:23;103014.88;;;6.76;100.00
18985;BME280;9626;52.552;13.436;2023-02-13T15:39:53;103016.47;;;6.71;100.00
18985;BME280;9626;52.552;13.436;2023-02-13T15:42:19;103019.16;;;6.73;100.00
18985;BME280;9626;52.552;13.436;2023-02-13T15:44:52;103020.84;;;6.71;100.00
18985;BME280;9626;52.552;13.436;2023-02-13T15:49:51;103020.84;;;6.71;100.00
18985;BME280;9626;52.552;13.436;2023-02-13T15:55:12;103004.09;;;6.69;100.00
18985;BME280;9626;52.552;13.436;2023-02-13T15:57:42;103016.25;;;6.65;100.00
18985;BME280;9626;52.552;13.436;2023-02-13T16:03:14;103028.31;;;6.58;100.00
18985;BME280;9626;52.552;13.436;2023-02-13T16:05:44;103024.69;;;6.55;100.00
18985;BME280;9626;52.552;13.436;2023-02-13T16:08:33;103024.78;;;6.58;100.00
18985;BME280;9626;52.552;13.436;2023-02-13T16:16:49;103033.31;;;6.51;100.00
18985;BME280;9626;52.552;13.436;2023-02-13T16:19:25;103035.91;;;6.49;100.00
18985;BME280;9626;52.552;13.436;2023-02-13T16:21:53;103037.03;;;6.56;100.00
18985;BME280;9626;52.552;13.436;2023-02-13T16:24:21;103042.53;;;6.64;100.00
18985;BME280;9626;52.552;13.436;2023-02-13T16:26:48;103037.84;;;6.55;100.00